Time;durP1;ratioP1;P1;durP2;ratioP2;P2;SDS_P1;SDS_P2;PMS_P1;PMS_P2;Temp;Humidity;BMP_temperature;BMP_pressure;BME280_temperature;BME280_humidity;BME280_pressure;Samples;Min_cycle;Max_cycle;Signal;HPM_P1;HPM_P2
2023/04/02 00:01:47;;;;;;;0.70;0.57;;;;;;;10.57;74.10;97888.78;5026233;27;102844;-65
2023/04/02 00:04:21;;;;;;;1.03;0.53;;;;;;;10.56;73.94;97884.44;5023153;27;103255;-65
2023/04/02 00:06:53;;;;;;;0.90;0.80;;;;;;;10.61;73.75;97889.38;5024915;27;103267;-65
2023/04/02 00:09:36;;;;;;;0.70;0.50;;;;;;;10.62;73.88;97898.94;5042785;27;103392;-65
2023/04/02 00:12:17;;;;;;;0.80;0.60;;;;;;;10.56;73.79;97897.66;5031300;27;102754;-65
2023/04/02 00:14:48;;;;;;;1.10;0.60;;;;;;;10.45;74.05;97897.72;5051137;27;103291;-65
2023/04/02 00:17:20;;;;;;;1.47;0.53;;;;;;;10.49;74.38;97904.44;5037784;27;103200;-65
2023/04/02 00:19:56;;;;;;;0.77;0.50;;;;;;;10.48;74.10;97900.97;5047769;27;103706;-65
2023/04/02 00:22:28;;;;;;;0.53;0.50;;;;;;;10.52;74.20;97905.97;5033091;27;103891;-65
2023/04/02 00:25:00;;;;;;;1.40;0.60;;;;;;;10.50;74.54;97911.38;5034934;27;104164;-65
2023/04/02 00:27:31;;;;;;;1.90;0.80;;;;;;;10.56;74.36;97910.88;5034928;27;103249;-65
2023/04/02 00:29:59;;;;;;;1.70;0.70;;;;;;;10.51;74.62;97913.06;5038608;27;103413;-65
2023/04/02 00:32:30;;;;;;;2.23;1.40;;;;;;;10.44;74.10;97911.91;5032258;27;103978;-65
2023/04/02 00:34:59;;;;;;;3.47;1.23;;;;;;;10.28;75.14;97917.63;5031560;27;103235;-65
2023/04/02 00:37:37;;;;;;;1.43;0.70;;;;;;;10.47;74.36;97925.69;5015333;27;103269;-65
2023/04/02 00:40:15;;;;;;;2.27;0.70;;;;;;;10.51;74.01;97910.41;5015924;27;103116;-65
2023/04/02 00:42:45;;;;;;;1.03;0.70;;;;;;;10.38;75.22;97929.13;5024808;27;103738;-65
2023/04/02 00:45:21;;;;;;;2.33;0.80;;;;;;;10.55;74.44;97925.06;5014523;27;105648;-66
2023/04/02 00:47:50;;;;;;;1.23;0.70;;;;;;;10.55;74.01;97924.22;5031813;27;103359;-65
2023/04/02 00:50:23;;;;;;;1.33;0.70;;;;;;;10.68;73.80;97920.41;5018783;27;102977;-65
2023/04/02 00:52:54;;;;;;;0.77;0.57;;;;;;;10.68;73.96;97924.84;5042015;27;104965;-65
2023/04/02 00:55:27;;;;;;;0.80;0.50;;;;;;;10.72;73.60;97931.56;5019116;27;103246;-65
2023/04/02 00:57:57;;;;;;;0.60;0.40;;;;;;;10.73;73.60;97928.75;5015178;27;103309;-65
2023/04/02 01:00:30;;;;;;;0.60;0.60;;;;;;;10.51;74.19;97928.91;5033146;27;102755;-65
2023/04/02 01:03:28;;;;;;;0.97;0.50;;;;;;;10.68;73.96;97924.84;5032180;27;102830;-65
2023/04/02 01:06:01;;;;;;;0.43;0.43;;;;;;;10.62;73.48;97926.19;5029357;27;103461;-65
2023/04/02 01:08:46;;;;;;;0.80;0.50;;;;;;;10.28;74.58;97928.19;5016117;27;103183;-65
2023/04/02 01:11:30;;;;;;;0.80;0.50;;;;;;;10.44;74.48;97933.03;5032425;27;102842;-65
2023/04/02 01:14:03;;;;;;;0.87;0.67;;;;;;;10.61;74.10;97935.06;5011418;27;102650;-65
2023/04/02 01:16:41;;;;;;;0.40;0.40;;;;;;;10.77;73.51;97940.75;5036676;27;103242;-65
2023/04/02 01:19:32;;;;;;;0.83;0.40;;;;;;;10.79;73.27;97930.06;5015654;27;103410;-65
2023/04/02 01:22:08;;;;;;;0.40;0.40;;;;;;;10.87;73.06;97938.16;5016524;27;102934;-65
2023/04/02 01:24:37;;;;;;;1.53;0.57;;;;;;;10.61;73.70;97929.78;5015132;27;104371;-65
2023/04/02 01:27:14;;;;;;;0.60;0.40;;;;;;;10.57;74.05;97941.59;5036564;27;103234;-65
2023/04/02 01:29:47;;;;;;;0.60;0.40;;;;;;;10.57;74.39;97936.31;5010825;27;103308;-65
2023/04/02 01:32:18;;;;;;;1.60;0.40;;;;;;;10.57;73.71;97938.13;5012221;27;104471;-65
2023/04/02 01:34:49;;;;;;;0.40;0.40;;;;;;;10.81;73.29;97941.31;5019393;27;102707;-65
2023/04/02 01:37:38;;;;;;;0.60;0.40;;;;;;;10.69;73.61;97943.22;5033778;27;103231;-65
2023/04/02 01:40:23;;;;;;;1.07;0.50;;;;;;;10.74;73.50;97945.47;5034437;27;103236;-64
2023/04/02 01:43:00;;;;;;;1.50;0.50;;;;;;;10.79;73.05;97944.09;5022245;27;102761;-65
2023/04/02 01:45:30;;;;;;;0.50;0.50;;;;;;;10.87;73.15;97952.22;5017856;27;102825;-65
2023/04/02 01:47:58;;;;;;;0.43;0.40;;;;;;;10.78;73.47;97952.19;5029142;27;103294;-65
2023/04/02 01:50:30;;;;;;;0.73;0.60;;;;;;;10.67;73.59;97958.34;5008555;27;104146;-65
2023/04/02 01:53:01;;;;;;;1.27;0.50;;;;;;;10.65;74.04;97955.00;5017725;27;102740;-64
2023/04/02 01:55:34;;;;;;;0.77;0.50;;;;;;;10.70;74.11;97960.72;5029088;27;104104;-65
2023/04/02 01:58:03;;;;;;;0.53;0.40;;;;;;;10.59;74.28;97955.50;5023075;27;104146;-65
2023/04/02 02:00:43;;;;;;;1.20;0.53;;;;;;;10.66;74.98;97963.75;5019368;27;103082;-65
2023/04/02 02:03:12;;;;;;;1.17;0.47;;;;;;;10.59;74.41;97968.72;5017248;27;102723;-65
2023/04/02 02:05:41;;;;;;;0.70;0.40;;;;;;;10.56;74.23;97963.69;5020591;27;104813;-65
2023/04/02 02:08:29;;;;;;;1.43;0.50;;;;;;;10.42;74.88;97966.63;5015971;27;104199;-60
2023/04/02 02:10:58;;;;;;;0.40;0.40;;;;;;;10.30;75.45;97968.47;5010379;27;103235;-60
2023/04/02 02:13:26;;;;;;;0.67;0.50;;;;;;;10.23;75.79;97969.97;5019903;27;102821;-60
2023/04/02 02:15:58;;;;;;;0.47;0.47;;;;;;;10.29;75.82;97966.84;5016490;27;102833;-60
2023/04/02 02:18:28;;;;;;;0.60;0.50;;;;;;;10.20;75.87;97970.22;5038882;27;103306;-60
2023/04/02 02:20:59;;;;;;;0.80;0.40;;;;;;;10.19;75.42;97971.16;5040218;27;103229;-59
2023/04/02 02:23:29;;;;;;;0.30;0.30;;;;;;;10.36;75.45;97972.41;5033002;27;102669;-60
2023/04/02 02:25:58;;;;;;;0.30;0.30;;;;;;;10.32;75.44;97976.28;5034659;27;103788;-59
2023/04/02 02:28:30;;;;;;;0.77;0.40;;;;;;;10.14;75.30;97977.78;5014448;27;103305;-59
2023/04/02 02:31:04;;;;;;;0.93;0.43;;;;;;;10.44;74.74;97980.56;5038224;27;104578;-60
2023/04/02 02:33:37;;;;;;;0.30;0.30;;;;;;;10.27;75.87;97987.22;5007853;27;102815;-60
2023/04/02 02:36:14;;;;;;;0.90;0.43;;;;;;;10.39;74.79;97980.94;5013572;27;103044;-60
2023/04/02 02:38:51;;;;;;;0.40;0.40;;;;;;;10.38;75.16;97986.34;5034984;27;104382;-59
2023/04/02 02:41:40;;;;;;;0.53;0.37;;;;;;;10.37;75.09;97989.94;5033318;27;103342;-59
2023/04/02 02:44:14;;;;;;;1.30;0.47;;;;;;;10.37;74.55;97989.94;5011652;27;102782;-60
2023/04/02 02:46:50;;;;;;;0.47;0.40;;;;;;;10.31;75.23;97998.38;5032389;27;103803;-60
2023/04/02 02:49:21;;;;;;;1.17;0.40;;;;;;;10.29;74.97;97992.38;5010332;27;103303;-59
2023/04/02 02:51:57;;;;;;;0.60;0.40;;;;;;;10.61;74.45;97990.53;5035035;27;103225;-59
2023/04/02 02:54:35;;;;;;;0.63;0.43;;;;;;;10.43;75.02;97994.72;5021270;27;103231;-60
2023/04/02 02:57:06;;;;;;;0.67;0.47;;;;;;;10.30;75.16;98002.00;5037961;27;103524;-59
2023/04/02 02:59:35;;;;;;;1.90;0.50;;;;;;;10.32;74.89;97998.25;5031414;27;103555;-59
2023/04/02 03:02:06;;;;;;;0.77;0.50;;;;;;;10.55;74.48;98001.66;5012912;27;103207;-59
2023/04/02 03:04:36;;;;;;;1.10;0.43;;;;;;;10.36;75.06;97999.66;5021289;27;103227;-60
2023/04/02 03:07:09;;;;;;;1.13;0.30;;;;;;;10.23;75.58;97998.16;5015141;27;103045;-65
2023/04/02 03:09:45;;;;;;;0.40;0.40;;;;;;;10.25;75.60;98007.63;5020969;27;104152;-65
2023/04/02 03:12:29;;;;;;;0.60;0.50;;;;;;;10.36;75.38;98012.03;5034757;27;103277;-65
2023/04/02 03:15:03;;;;;;;1.67;0.50;;;;;;;10.18;75.64;98010.91;5024560;27;102821;-65
2023/04/02 03:17:37;;;;;;;0.50;0.50;;;;;;;10.33;75.11;98013.13;5031811;27;102614;-65
2023/04/02 03:20:13;;;;;;;0.40;0.40;;;;;;;10.34;75.38;98017.44;5016696;27;105336;-65
2023/04/02 03:22:46;;;;;;;0.30;0.30;;;;;;;10.32;75.60;98019.38;5034649;27;103190;-65
2023/04/02 03:25:25;;;;;;;0.47;0.30;;;;;;;10.45;75.54;98013.91;5018549;27;102654;-65
2023/04/02 03:28:01;;;;;;;0.37;0.37;;;;;;;10.44;75.11;98026.28;5017899;27;102711;-65
2023/04/02 03:30:37;;;;;;;0.60;0.43;;;;;;;10.42;74.83;98019.44;5029930;27;104028;-65
2023/04/02 03:33:13;;;;;;;0.77;0.40;;;;;;;10.35;75.17;98023.56;5040269;27;103456;-65
2023/04/02 03:35:47;;;;;;;0.40;0.40;;;;;;;10.42;75.20;98024.72;5017433;27;102708;-65
2023/04/02 03:38:20;;;;;;;0.30;0.30;;;;;;;10.40;75.29;98032.78;5011661;27;103955;-65
2023/04/02 03:40:59;;;;;;;1.57;0.43;;;;;;;10.40;75.48;98038.06;5032272;27;103037;-65
2023/04/02 03:43:32;;;;;;;0.60;0.50;;;;;;;10.28;75.39;98039.06;5025521;27;103233;-65
2023/04/02 03:46:11;;;;;;;0.40;0.40;;;;;;;10.20;76.14;98046.78;5017434;27;102908;-66
2023/04/02 03:48:46;;;;;;;1.57;0.70;;;;;;;10.48;75.54;98040.06;5013795;27;103977;-60
2023/04/02 03:51:20;;;;;;;0.67;0.47;;;;;;;10.32;76.09;98045.78;5012907;27;103197;-61
2023/04/02 03:53:49;;;;;;;0.30;0.30;;;;;;;10.56;75.40;98048.19;5042819;27;104158;-61
2023/04/02 03:56:27;;;;;;;0.53;0.53;;;;;;;10.46;75.39;98042.00;5041683;27;102624;-60
2023/04/02 03:59:11;;;;;;;1.13;0.40;;;;;;;10.41;75.47;98052.13;5018740;27;102778;-61
2023/04/02 04:01:45;;;;;;;0.23;0.23;;;;;;;10.42;75.52;98051.13;5012176;27;103899;-60
2023/04/02 04:04:17;;;;;;;0.47;0.40;;;;;;;10.58;74.73;98048.94;5018067;27;103193;-60
2023/04/02 04:06:51;;;;;;;0.53;0.50;;;;;;;10.34;75.47;98049.13;5021558;27;102792;-60
2023/04/02 04:09:26;;;;;;;0.57;0.43;;;;;;;10.20;76.21;98062.59;5023926;27;102693;-60
2023/04/02 04:12:07;;;;;;;0.97;0.50;;;;;;;10.12;76.54;98064.16;5021805;27;104273;-60
2023/04/02 04:14:37;;;;;;;0.50;0.40;;;;;;;10.37;76.13;98069.16;5017650;27;105097;-60
2023/04/02 04:17:14;;;;;;;0.30;0.30;;;;;;;10.57;75.19;98073.66;5026273;27;102725;-60
2023/04/02 04:19:48;;;;;;;0.70;0.30;;;;;;;10.54;75.27;98071.28;5039491;27;103671;-60
2023/04/02 04:22:18;;;;;;;0.60;0.30;;;;;;;10.63;74.77;98075.81;5016086;27;103866;-60
2023/04/02 04:24:53;;;;;;;0.47;0.40;;;;;;;10.41;76.04;98081.16;5013604;27;103417;-60
2023/04/02 04:27:33;;;;;;;1.07;0.50;;;;;;;10.32;76.25;98084.53;5031290;27;103215;-60
2023/04/02 04:30:09;;;;;;;0.50;0.40;;;;;;;10.52;75.54;98083.78;5015411;27;102843;-60
2023/04/02 04:32:49;;;;;;;4.07;0.40;;;;;;;10.52;75.65;98089.06;5012308;27;103523;-60
2023/04/02 04:35:29;;;;;;;1.00;0.30;;;;;;;10.55;75.44;98087.97;5011742;27;103539;-60
2023/04/02 04:38:14;;;;;;;0.60;0.50;;;;;;;10.49;75.68;98097.22;5029829;27;102698;-60
2023/04/02 04:40:51;;;;;;;0.70;0.40;;;;;;;10.48;75.54;98092.91;5012198;27;102955;-60
2023/04/02 04:43:47;;;;;;;0.93;0.30;;;;;;;10.64;74.89;98101.22;5030947;27;104231;-59
2023/04/02 04:46:20;;;;;;;1.03;0.30;;;;;;;10.76;74.66;98102.03;5012996;27;103234;-60
2023/04/02 04:48:54;;;;;;;0.30;0.20;;;;;;;10.69;74.72;98104.38;5017349;27;102804;-60
2023/04/02 04:51:29;;;;;;;0.50;0.40;;;;;;;10.83;74.67;98108.50;5011273;27;104374;-60
2023/04/02 04:53:58;;;;;;;0.73;0.40;;;;;;;10.81;74.54;98105.97;5032884;27;103480;-60
2023/04/02 04:56:31;;;;;;;0.40;0.33;;;;;;;10.74;74.86;98109.25;5010217;27;105241;-60
2023/04/02 04:59:18;;;;;;;0.97;0.60;;;;;;;10.83;74.22;98119.06;5016778;27;102870;-60
2023/04/02 05:01:55;;;;;;;1.10;0.50;;;;;;;10.86;74.66;98124.94;5017420;27;102901;-60
2023/04/02 05:04:26;;;;;;;0.33;0.33;;;;;;;10.64;75.87;98127.66;5013049;27;103254;-60
2023/04/02 05:07:03;;;;;;;1.40;0.47;;;;;;;10.65;75.80;98121.41;5037274;27;103290;-60
2023/04/02 05:09:36;;;;;;;1.17;0.50;;;;;;;10.73;75.57;98137.47;5018723;27;102766;-60
2023/04/02 05:12:17;;;;;;;1.40;0.50;;;;;;;10.76;75.69;98134.59;5009182;27;102794;-60
2023/04/02 05:14:51;;;;;;;0.40;0.40;;;;;;;10.88;75.23;98133.59;5022995;27;103489;-60
2023/04/02 05:17:28;;;;;;;0.93;0.50;;;;;;;10.92;74.85;98137.63;5010508;27;103320;-60
2023/04/02 05:20:03;;;;;;;0.70;0.43;;;;;;;10.78;75.42;98140.56;5015485;27;102769;-60
2023/04/02 05:22:41;;;;;;;0.70;0.50;;;;;;;10.92;75.00;98139.44;5022278;27;102796;-59
2023/04/02 05:25:19;;;;;;;0.20;0.20;;;;;;;11.03;74.30;98136.78;5016814;27;103044;-60
2023/04/02 05:27:54;;;;;;;0.67;0.40;;;;;;;10.95;75.05;98145.31;5015496;27;103434;-60
2023/04/02 05:30:45;;;;;;;1.50;0.40;;;;;;;10.80;75.61;98149.25;5034345;27;102826;-59
2023/04/02 05:33:22;;;;;;;0.40;0.40;;;;;;;10.49;77.33;98152.69;5009748;27;103108;-60
2023/04/02 05:35:59;;;;;;;0.77;0.50;;;;;;;10.59;76.71;98153.59;5017304;27;105095;-60
2023/04/02 05:38:32;;;;;;;0.30;0.30;;;;;;;10.68;76.75;98162.59;5016659;27;103265;-60
2023/04/02 05:41:03;;;;;;;0.40;0.30;;;;;;;10.64;76.93;98155.91;5020595;27;102761;-59
2023/04/02 05:43:34;;;;;;;2.20;0.30;;;;;;;10.45;77.75;98170.56;5039981;27;102744;-60
2023/04/02 05:46:21;;;;;;;0.40;0.30;;;;;;;10.59;77.62;98168.59;5021874;27;104240;-60
2023/04/02 05:48:55;;;;;;;1.13;0.40;;;;;;;10.62;77.20;98168.38;5037656;27;104206;-60
2023/04/02 05:51:29;;;;;;;0.40;0.37;;;;;;;10.74;76.66;98168.22;5021123;27;102798;-60
2023/04/02 05:54:01;;;;;;;0.43;0.40;;;;;;;10.78;76.85;98180.22;5016305;27;104067;-60
2023/04/02 05:56:35;;;;;;;0.40;0.40;;;;;;;10.76;76.74;98176.84;5018919;27;103755;-60
2023/04/02 05:59:09;;;;;;;0.50;0.50;;;;;;;10.68;77.79;98178.44;5015803;27;103512;-60
2023/04/02 06:01:44;;;;;;;0.40;0.40;;;;;;;10.75;77.30;98179.63;5041732;27;103007;-60
2023/04/02 06:04:29;;;;;;;1.27;0.40;;;;;;;10.62;76.91;98182.41;5038111;27;104023;-60
2023/04/02 06:07:01;;;;;;;0.33;0.33;;;;;;;10.84;76.91;98195.56;5018413;27;103872;-60
2023/04/02 06:09:38;;;;;;;0.63;0.40;;;;;;;10.91;77.27;98194.13;5020142;27;103221;-60
2023/04/02 06:12:18;;;;;;;0.50;0.40;;;;;;;10.83;76.93;98201.84;5036387;27;102783;-60
2023/04/02 06:14:47;;;;;;;1.40;0.47;;;;;;;10.85;76.58;98205.19;5020167;27;102821;-60
2023/04/02 06:17:17;;;;;;;0.30;0.30;;;;;;;10.51;78.59;98203.56;5046663;27;104079;-60
2023/04/02 06:19:46;;;;;;;0.30;0.30;;;;;;;10.79;77.37;98203.03;5020545;27;103179;-61
2023/04/02 06:22:22;;;;;;;0.70;0.40;;;;;;;10.85;78.15;98214.91;5023517;27;102739;-60
2023/04/02 06:25:02;;;;;;;0.97;0.40;;;;;;;10.81;77.46;98213.47;5019218;27;102885;-60
2023/04/02 06:27:38;;;;;;;1.27;0.50;;;;;;;10.80;77.73;98215.28;5019828;27;104867;-60
2023/04/02 06:30:17;;;;;;;0.63;0.57;;;;;;;10.90;77.17;98225.94;5018436;27;103213;-60
2023/04/02 06:32:47;;;;;;;0.40;0.40;;;;;;;10.92;76.28;98230.13;5014246;27;102682;-60
2023/04/02 06:35:17;;;;;;;0.40;0.40;;;;;;;10.81;76.42;98230.16;5019110;27;102798;-60
2023/04/02 06:37:54;;;;;;;1.00;0.60;;;;;;;10.68;78.12;98234.75;5018539;27;103239;-60
2023/04/02 06:40:39;;;;;;;0.40;0.40;;;;;;;10.52;79.40;98242.25;5014843;27;103279;-60
2023/04/02 06:43:35;;;;;;;0.40;0.40;;;;;;;10.63;79.31;98239.59;5021160;27;103095;-61
2023/04/02 06:46:36;;;;;;;0.97;0.50;;;;;;;10.81;78.30;98247.81;4999072;27;102680;-60
2023/04/02 06:49:20;;;;;;;0.87;0.50;;;;;;;11.04;77.34;98250.31;5013781;27;103767;-60
2023/04/02 06:51:53;;;;;;;0.67;0.50;;;;;;;11.19;76.32;98257.94;5020919;27;103182;-60
2023/04/02 06:54:22;;;;;;;0.63;0.57;;;;;;;11.21;76.00;98256.00;5016810;27;102829;-61
2023/04/02 06:56:56;;;;;;;0.63;0.40;;;;;;;10.97;77.29;98266.78;5024035;27;104063;-59
2023/04/02 06:59:35;;;;;;;1.23;0.40;;;;;;;11.18;76.03;98262.38;5016718;27;103471;-60
2023/04/02 07:02:22;;;;;;;1.77;0.50;;;;;;;10.89;76.96;98277.13;5018859;27;104448;-59
2023/04/02 07:04:58;;;;;;;1.63;0.63;;;;;;;11.10;76.82;98283.31;5014933;27;102732;-60
2023/04/02 07:07:32;;;;;;;0.60;0.40;;;;;;;11.23;76.57;98280.53;5033335;27;102707;-60
2023/04/02 07:10:04;;;;;;;0.40;0.40;;;;;;;10.91;78.05;98291.06;5033102;27;103466;-60
2023/04/02 07:12:36;;;;;;;1.07;0.60;;;;;;;10.70;78.92;98300.69;5034592;27;103384;-60
2023/04/02 07:15:07;;;;;;;0.93;0.63;;;;;;;11.03;78.40;98290.91;5010425;27;102900;-59
2023/04/02 07:17:35;;;;;;;0.40;0.40;;;;;;;11.28;77.06;98288.94;5007534;27;102926;-59
2023/04/02 07:20:06;;;;;;;0.73;0.47;;;;;;;11.30;75.78;98300.22;5035682;27;103022;-60
2023/04/02 07:22:34;;;;;;;0.60;0.57;;;;;;;11.42;75.78;98299.22;5033234;27;104052;-60
2023/04/02 07:25:05;;;;;;;1.73;0.67;;;;;;;11.26;75.26;98306.72;5010536;27;103926;-60
2023/04/02 07:27:34;;;;;;;0.60;0.50;;;;;;;11.47;74.89;98300.53;5036341;27;102875;-60
2023/04/02 07:30:06;;;;;;;0.40;0.40;;;;;;;11.66;74.72;98310.44;5033782;27;103049;-60
2023/04/02 07:32:35;;;;;;;1.37;0.50;;;;;;;11.58;74.16;98313.72;5035943;27;103313;-59
2023/04/02 07:35:03;;;;;;;1.37;0.80;;;;;;;11.03;75.02;98317.34;5038033;27;102563;-60
2023/04/02 07:37:32;;;;;;;0.90;0.70;;;;;;;10.94;77.12;98319.91;5020965;27;104016;-59
2023/04/02 07:40:00;;;;;;;0.60;0.60;;;;;;;11.12;78.08;98322.84;5031972;27;103310;-60
2023/04/02 07:42:29;;;;;;;1.07;0.60;;;;;;;11.17;76.74;98325.97;5029264;27;103665;-61
2023/04/02 07:44:56;;;;;;;1.07;0.57;;;;;;;11.25;75.72;98336.78;5018129;27;102666;-60
2023/04/02 07:47:26;;;;;;;1.90;0.77;;;;;;;11.58;74.88;98328.75;5029358;27;102847;-60
2023/04/02 07:49:55;;;;;;;0.90;0.70;;;;;;;11.42;75.60;98337.09;5037633;27;103787;-60
2023/04/02 07:52:23;;;;;;;0.93;0.60;;;;;;;11.26;75.67;98344.56;5019264;27;103030;-60
2023/04/02 07:54:52;;;;;;;0.60;0.50;;;;;;;11.57;76.05;98349.06;5036029;27;102655;-60
2023/04/02 07:57:20;;;;;;;1.03;0.67;;;;;;;11.73;74.72;98343.41;5036177;27;102752;-61
2023/04/02 07:59:48;;;;;;;3.17;0.73;;;;;;;11.52;75.21;98351.25;5030454;27;103265;-60
2023/04/02 08:02:19;;;;;;;1.43;0.90;;;;;;;11.59;74.78;98359.53;5031451;27;103238;-60
2023/04/02 08:04:51;;;;;;;0.70;0.70;;;;;;;11.49;75.15;98366.53;5030123;27;103266;-60
2023/04/02 08:07:23;;;;;;;1.07;0.53;;;;;;;11.48;75.35;98365.69;5025107;27;103779;-59
2023/04/02 08:09:53;;;;;;;0.67;0.67;;;;;;;11.33;75.17;98371.38;5029682;27;104019;-60
2023/04/02 08:12:22;;;;;;;1.33;0.60;;;;;;;11.67;74.96;98369.47;5012823;27;103135;-60
2023/04/02 08:14:50;;;;;;;1.30;0.90;;;;;;;11.44;75.35;98374.00;5035794;27;102631;-59
2023/04/02 08:17:20;;;;;;;1.30;0.83;;;;;;;11.43;74.95;98378.44;5033030;27;102996;-59
2023/04/02 08:19:51;;;;;;;0.97;0.63;;;;;;;11.53;75.59;98378.56;5031325;27;103338;-59
2023/04/02 08:22:23;;;;;;;1.73;0.80;;;;;;;12.04;74.50;98371.63;5032803;27;103233;-59
2023/04/02 08:24:52;;;;;;;1.80;0.70;;;;;;;12.17;73.33;98380.25;5014946;27;102943;-59
2023/04/02 08:27:21;;;;;;;0.60;0.60;;;;;;;11.29;75.38;98393.72;5033532;27;102755;-59
2023/04/02 08:29:52;;;;;;;0.70;0.70;;;;;;;11.89;74.85;98382.66;5012133;27;103021;-59
2023/04/02 08:32:23;;;;;;;0.60;0.57;;;;;;;11.97;72.65;98394.31;5016638;27;103377;-59
2023/04/02 08:34:52;;;;;;;0.60;0.60;;;;;;;12.10;72.06;98400.25;5036945;27;103272;-59
2023/04/02 08:37:21;;;;;;;1.20;0.80;;;;;;;12.35;72.25;98400.88;5028115;27;102895;-59
2023/04/02 08:39:49;;;;;;;0.93;0.63;;;;;;;12.35;73.24;98406.97;5024614;27;103249;-60
2023/04/02 08:42:25;;;;;;;0.50;0.50;;;;;;;12.02;73.44;98402.69;5017941;27;103210;-60
2023/04/02 08:45:11;;;;;;;1.07;0.63;;;;;;;12.27;71.83;98411.28;5010797;27;103164;-60
2023/04/02 08:47:56;;;;;;;1.30;0.60;;;;;;;12.18;71.32;98413.69;5013411;27;103177;-61
2023/04/02 08:50:32;;;;;;;0.70;0.50;;;;;;;12.44;71.76;98413.31;5013429;27;103009;-60
2023/04/02 08:53:04;;;;;;;0.87;0.70;;;;;;;12.21;72.65;98418.75;5032839;27;103220;-60
2023/04/02 08:55:41;;;;;;;1.20;0.87;;;;;;;11.40;77.44;98425.44;5027831;27;102695;-61
2023/04/02 08:58:24;;;;;;;1.10;0.70;;;;;;;11.71;76.13;98424.69;5035082;27;103144;-61
2023/04/02 09:00:55;;;;;;;0.67;0.60;;;;;;;11.63;78.26;98435.03;5023613;27;103263;-60
2023/04/02 09:03:29;;;;;;;0.80;0.80;;;;;;;12.33;76.25;98427.47;5027618;27;103228;-65
2023/04/02 09:06:02;;;;;;;1.03;0.80;;;;;;;11.80;77.73;98439.00;5010241;27;102799;-66
2023/04/02 09:08:34;;;;;;;0.80;0.70;;;;;;;12.40;75.60;98436.59;5032809;27;103812;-66
2023/04/02 09:11:08;;;;;;;2.20;0.90;;;;;;;12.57;73.52;98435.19;5016401;27;103062;-66
2023/04/02 09:13:45;;;;;;;1.03;0.83;;;;;;;12.81;73.16;98443.69;5035133;27;103295;-66
2023/04/02 09:16:15;;;;;;;1.23;0.80;;;;;;;13.09;71.77;98448.34;5028177;27;103765;-66
2023/04/02 09:18:47;;;;;;;2.13;0.80;;;;;;;12.55;72.62;98455.66;5027537;27;102916;-66
2023/04/02 09:21:36;;;;;;;1.10;0.80;;;;;;;12.88;72.30;98447.53;4982499;27;103318;-66
2023/04/02 09:24:05;;;;;;;1.10;0.90;;;;;;;12.47;74.76;98455.47;5034590;27;103343;-65
2023/04/02 09:26:33;;;;;;;1.27;0.80;;;;;;;12.80;73.61;98453.44;5033625;27;102813;-66
2023/04/02 09:29:24;;;;;;;0.60;0.60;;;;;;;13.11;71.31;98457.00;5022399;27;102776;-65
2023/04/02 09:32:02;;;;;;;0.97;0.83;;;;;;;13.31;69.64;98460.56;5024530;27;103903;-66
2023/04/02 09:34:32;;;;;;;1.03;0.93;;;;;;;12.72;72.78;98469.16;5027716;27;103044;-66
2023/04/02 09:37:09;;;;;;;1.50;0.90;;;;;;;12.80;73.96;98473.81;5028945;27;103173;-66
2023/04/02 09:39:38;;;;;;;1.30;1.00;;;;;;;13.06;72.33;98474.25;5028430;27;102880;-66
2023/04/02 09:42:07;;;;;;;0.80;0.80;;;;;;;12.28;73.31;98481.78;5012266;27;104177;-66
2023/04/02 09:44:36;;;;;;;2.23;0.93;;;;;;;12.86;73.16;98483.06;5016221;27;103090;-66
2023/04/02 09:47:25;;;;;;;2.07;1.00;;;;;;;12.41;73.31;98483.31;5028513;27;102906;-64
2023/04/02 09:49:55;;;;;;;1.43;0.93;;;;;;;12.99;72.54;98489.03;5018941;27;102756;-64
2023/04/02 09:52:30;;;;;;;1.27;0.90;;;;;;;13.52;70.73;98484.41;5030264;27;103349;-64
2023/04/02 09:55:18;;;;;;;1.10;0.90;;;;;;;13.05;71.34;98491.16;5012263;27;103203;-63
2023/04/02 09:57:48;;;;;;;1.03;0.60;;;;;;;13.87;70.14;98488.28;5032476;27;102852;-65
2023/04/02 10:00:21;;;;;;;1.90;1.00;;;;;;;14.05;69.23;98491.13;5032175;27;103447;-65
2023/04/02 10:03:05;;;;;;;1.27;0.90;;;;;;;14.21;68.14;98493.22;5029971;27;104077;-65
2023/04/02 10:05:34;;;;;;;0.87;0.50;;;;;;;13.79;67.43;98496.09;5028184;27;104229;-65
2023/04/02 10:08:15;;;;;;;0.77;0.60;;;;;;;13.45;67.35;98504.47;5030972;27;102915;-65
2023/04/02 10:10:48;;;;;;;1.60;0.60;;;;;;;13.80;68.46;98504.91;5025126;27;102709;-65
2023/04/02 10:13:22;;;;;;;0.50;0.40;;;;;;;14.50;67.43;98500.28;5025265;27;104044;-65
2023/04/02 10:15:55;;;;;;;1.27;1.10;;;;;;;14.78;66.38;98505.72;5033481;27;103253;-65
2023/04/02 10:18:36;;;;;;;0.60;0.60;;;;;;;14.10;66.55;98509.28;5033081;27;103039;-66
2023/04/02 10:21:06;;;;;;;0.70;0.60;;;;;;;13.99;67.28;98512.06;5024571;27;102845;-65
2023/04/02 10:23:36;;;;;;;0.57;0.50;;;;;;;14.20;66.86;98518.97;5026562;27;104175;-65
2023/04/02 10:26:19;;;;;;;0.77;0.43;;;;;;;14.55;65.16;98514.94;5030533;27;103360;-62
2023/04/02 10:29:08;;;;;;;1.30;0.50;;;;;;;13.94;67.14;98512.50;5028542;27;102739;-65
2023/04/02 10:31:46;;;;;;;0.40;0.40;;;;;;;14.66;66.82;98522.78;5030619;27;102653;-66
2023/04/02 10:34:23;;;;;;;0.53;0.43;;;;;;;14.85;64.20;98522.81;5029954;27;103298;-66
2023/04/02 10:36:54;;;;;;;1.10;0.87;;;;;;;14.56;64.01;98521.97;5024891;27;103384;-66
2023/04/02 10:39:31;;;;;;;1.83;1.30;;;;;;;13.68;67.71;98524.56;5023822;27;103677;-66
2023/04/02 10:42:10;;;;;;;0.67;0.67;;;;;;;14.20;65.72;98526.09;5032551;27;102771;-67
2023/04/02 10:44:55;;;;;;;0.70;0.60;;;;;;;13.98;67.38;98527.16;5041521;27;104128;-66
2023/04/02 10:47:36;;;;;;;1.70;1.50;;;;;;;14.08;66.76;98533.34;5031935;27;104377;-67
2023/04/02 10:50:26;;;;;;;2.23;0.90;;;;;;;14.59;65.64;98538.47;5031125;27;102685;-66
2023/04/02 10:53:02;;;;;;;0.50;0.50;;;;;;;14.79;62.54;98539.31;5029470;27;102665;-66
2023/04/02 10:55:38;;;;;;;0.63;0.50;;;;;;;14.60;63.21;98539.28;5031790;27;103289;-66
2023/04/02 10:58:15;;;;;;;0.40;0.40;;;;;;;14.57;62.88;98540.41;5033889;27;103370;-66
2023/04/02 11:00:46;;;;;;;1.30;0.40;;;;;;;14.74;63.86;98542.38;5017906;27;103002;-66
2023/04/02 11:03:24;;;;;;;1.37;0.40;;;;;;;15.38;62.25;98541.72;5044173;27;102674;-66
2023/04/02 11:05:57;;;;;;;0.80;0.57;;;;;;;15.07;62.61;98547.25;5031362;27;103243;-66
2023/04/02 11:08:29;;;;;;;0.40;0.40;;;;;;;13.76;64.33;98553.91;5021747;27;103185;-66
2023/04/02 11:11:03;;;;;;;0.57;0.50;;;;;;;13.59;66.06;98554.53;5018466;27;102782;-66
2023/04/02 11:13:39;;;;;;;0.57;0.40;;;;;;;14.50;65.58;98560.56;5031820;27;102627;-66
2023/04/02 11:16:09;;;;;;;0.50;0.50;;;;;;;14.30;64.30;98562.34;5028159;27;103398;-66
2023/04/02 11:18:38;;;;;;;0.63;0.50;;;;;;;13.84;66.29;98556.75;5034225;27;103416;-66
2023/04/02 11:21:07;;;;;;;0.40;0.40;;;;;;;13.31;67.47;98564.88;5042021;27;103035;-66
2023/04/02 11:23:56;;;;;;;0.83;0.53;;;;;;;13.68;66.04;98561.72;5032306;27;102702;-66
2023/04/02 11:26:52;;;;;;;0.30;0.30;;;;;;;13.96;64.86;98566.31;5029647;27;103369;-65
2023/04/02 11:29:24;;;;;;;0.50;0.40;;;;;;;14.08;65.41;98565.22;5029756;27;103215;-65
2023/04/02 11:32:15;;;;;;;0.53;0.53;;;;;;;14.45;64.78;98568.13;5036991;27;102796;-66
2023/04/02 11:35:19;;;;;;;0.73;0.50;;;;;;;14.06;63.29;98583.13;5033429;27;102787;-66
2023/04/02 11:37:48;;;;;;;0.40;0.33;;;;;;;13.48;66.73;98581.19;5022494;27;103338;-67
2023/04/02 11:40:49;;;;;;;0.40;0.40;;;;;;;14.23;65.35;98582.44;5035640;27;103473;-66
2023/04/02 11:43:59;;;;;;;0.80;0.60;;;;;;;14.27;65.27;98580.34;5036560;27;102715;-66
2023/04/02 11:46:45;;;;;;;0.50;0.50;;;;;;;13.61;66.21;98574.69;5032690;27;102761;-66
2023/04/02 11:49:40;;;;;;;0.87;0.50;;;;;;;13.30;65.76;98589.72;5029527;27;103255;-67
2023/04/02 11:52:28;;;;;;;0.57;0.50;;;;;;;14.36;64.57;98580.44;4968717;27;103389;-66
2023/04/02 11:55:04;;;;;;;0.37;0.30;;;;;;;14.57;63.79;98584.78;5028014;27;102539;-67
2023/04/02 11:58:02;;;;;;;0.40;0.40;;;;;;;14.25;64.10;98583.16;5041723;27;103889;-66
2023/04/02 12:00:55;;;;;;;0.40;0.40;;;;;;;14.08;64.73;98591.78;5022980;27;103340;-66
2023/04/02 12:03:43;;;;;;;0.53;0.40;;;;;;;14.44;62.38;98593.00;5035537;27;103340;-66